Lotus, Indiana
Current Conditions -  °F | °C
As of 8:55 PM on Monday 24 Nov 2014 (Local Time) from KI67 Reporting Station
Broken Clouds Broken Clouds  
Wind Chill: 34°   Ceiling: 6000
Heat Index: 41°   Visibility: 10mi
Dew Point: 32°   Wind: 12mph
Humidity: 70%   Direction: 250°WSW
Pressure: 29.89"   Gusts: 18mph
Location:  39.6086°N, 84.9137°W
Report Text: KI67 250155Z AUTO 25010G16KT 10SM BKN060 05/00 A2989 RMK AO1
Loading
Personal Weather Stations






























Interactive Weather Map New forecast layout! Learn more

10-Day Weather Forecast

Advertisements
Track Severe Weather on mobile